createdAt,value
2019-05-21T00:01:03.902Z,22.07
2019-05-21T00:03:29.010Z,21.83
2019-05-21T00:05:54.246Z,22.80
2019-05-21T00:08:19.370Z,19.40
2019-05-21T00:10:44.516Z,19.07
2019-05-21T00:13:09.651Z,18.40
2019-05-21T00:15:34.775Z,20.63
2019-05-21T00:17:59.931Z,22.77
2019-05-21T00:20:25.085Z,18.43
2019-05-21T00:22:50.232Z,22.33
2019-05-21T00:25:17.362Z,26.43
2019-05-21T00:27:42.831Z,25.70
2019-05-21T00:30:43.522Z,25.93
2019-05-21T00:33:44.063Z,22.23
2019-05-21T00:36:45.416Z,26.03
2019-05-21T00:39:46.272Z,21.80
2019-05-21T00:42:10.050Z,23.03
2019-05-21T00:44:38.601Z,25.47
2019-05-21T00:47:05.739Z,26.17
2019-05-21T00:49:32.143Z,21.07
2019-05-21T00:52:07.117Z,24.20
2019-05-21T00:54:24.302Z,22.17
2019-05-21T00:56:49.494Z,21.47
2019-05-21T00:59:14.628Z,26.57
2019-05-21T01:01:40.073Z,25.67
2019-05-21T01:04:06.208Z,26.10
2019-05-21T01:06:31.560Z,24.03
2019-05-21T01:08:57.389Z,25.93
2019-05-21T01:11:23.474Z,24.90
2019-05-21T01:13:48.694Z,27.03
2019-05-21T01:16:13.830Z,28.80
2019-05-21T01:18:39.258Z,24.77
2019-05-21T01:21:05.259Z,27.17
2019-05-21T01:23:30.402Z,27.00
2019-05-21T01:25:55.531Z,30.37
2019-05-21T01:28:20.676Z,28.30
2019-05-21T01:30:45.812Z,29.47
2019-05-21T01:33:10.914Z,34.27
2019-05-21T01:35:36.018Z,34.57
2019-05-21T01:38:01.412Z,33.33
2019-05-21T01:40:26.563Z,35.37
2019-05-21T01:42:51.985Z,34.93
2019-05-21T01:45:17.132Z,37.13
2019-05-21T01:47:42.243Z,31.80
2019-05-21T01:50:07.435Z,32.40
2019-05-21T01:52:32.562Z,29.20
2019-05-21T01:54:59.200Z,30.10
2019-05-21T01:57:24.631Z,34.13
2019-05-21T01:59:49.759Z,29.20
2019-05-21T02:02:14.894Z,27.10
2019-05-21T02:04:40.026Z,31.47
2019-05-21T02:07:05.169Z,31.70
2019-05-21T02:09:32.137Z,32.43
2019-05-21T02:11:57.270Z,28.10
2019-05-21T02:14:22.899Z,30.83
2019-05-21T02:16:48.033Z,29.30
2019-05-21T02:19:13.141Z,32.73
2019-05-21T02:21:38.280Z,32.30
2019-05-21T02:24:04.299Z,29.23
2019-05-21T02:26:29.422Z,31.40
2019-05-21T02:28:54.570Z,33.03
2019-05-21T02:31:19.692Z,34.00
2019-05-21T02:33:44.831Z,34.90
2019-05-21T02:36:10.039Z,30.47
2019-05-21T02:38:35.175Z,32.77
2019-05-21T02:41:00.303Z,33.10
2019-05-21T02:43:25.733Z,34.70
2019-05-21T02:45:50.853Z,38.17
2019-05-21T02:48:15.966Z,32.50
2019-05-21T02:50:41.312Z,33.23
2019-05-21T02:53:06.442Z,35.90
2019-05-21T02:55:31.583Z,33.50
2019-05-21T02:57:56.707Z,38.70
2019-05-21T03:00:49.834Z,39.13
2019-05-21T03:03:16.256Z,40.53
2019-05-21T03:05:41.416Z,39.60
2019-05-21T03:08:06.533Z,43.20
2019-05-21T03:10:33.307Z,43.10
2019-05-21T03:12:58.691Z,38.20
2019-05-21T03:15:23.852Z,37.13
2019-05-21T03:17:48.966Z,36.33
2019-05-21T03:20:14.398Z,39.40
2019-05-21T03:22:39.548Z,38.43
2019-05-21T03:25:04.994Z,38.33
2019-05-21T03:27:30.146Z,43.27
2019-05-21T03:29:56.007Z,39.20
2019-05-21T03:32:21.163Z,36.40
2019-05-21T03:34:46.654Z,40.07
2019-05-21T03:37:11.883Z,40.03
2019-05-21T03:39:37.003Z,38.43
2019-05-21T03:42:02.235Z,35.63
2019-05-21T03:44:27.403Z,38.60
2019-05-21T03:46:53.285Z,35.57
2019-05-21T03:49:20.059Z,38.43
2019-05-21T03:51:45.211Z,37.23
2019-05-21T03:54:10.355Z,35.90
2019-05-21T03:56:35.478Z,34.73
2019-05-21T03:59:00.632Z,34.13
2019-05-21T04:01:25.743Z,33.70
2019-05-21T04:03:50.883Z,32.90
2019-05-21T04:06:16.022Z,31.57
2019-05-21T04:08:41.166Z,31.27
2019-05-21T04:11:06.312Z,29.77
2019-05-21T04:13:31.406Z,28.87
2019-05-21T04:16:02.791Z,27.77
2019-05-21T04:18:41.657Z,27.87
2019-05-21T04:21:07.563Z,27.67
2019-05-21T04:23:32.673Z,28.77
2019-05-21T04:25:57.859Z,27.93
2019-05-21T04:28:22.990Z,27.10
2019-05-21T04:30:48.565Z,27.40
2019-05-21T04:33:13.963Z,27.60
2019-05-21T04:35:39.088Z,25.90
2019-05-21T04:38:04.270Z,24.63
2019-05-21T04:40:29.677Z,27.17
2019-05-21T04:42:54.823Z,24.83
2019-05-21T04:45:19.931Z,26.43
2019-05-21T04:47:45.085Z,25.20
2019-05-21T04:50:10.354Z,24.73
2019-05-21T04:52:35.497Z,25.07
2019-05-21T04:55:00.639Z,26.60
2019-05-21T04:57:25.766Z,26.13
2019-05-21T04:59:50.892Z,25.83
2019-05-21T05:02:15.986Z,24.73
2019-05-21T05:04:41.153Z,25.03
2019-05-21T05:07:06.276Z,24.73
2019-05-21T05:09:31.668Z,24.60
2019-05-21T05:11:56.845Z,25.53
2019-05-21T05:14:22.059Z,25.57
2019-05-21T05:16:47.179Z,26.13
2019-05-21T05:19:12.806Z,27.20
2019-05-21T05:21:37.943Z,26.67
2019-05-21T05:24:03.086Z,27.10
2019-05-21T05:26:28.222Z,27.40
2019-05-21T05:28:53.342Z,25.30
2019-05-21T05:31:18.486Z,23.27
2019-05-21T05:33:43.623Z,24.33
2019-05-21T05:36:08.856Z,25.27
2019-05-21T05:38:34.573Z,24.57
2019-05-21T05:40:59.683Z,25.53
2019-05-21T05:43:24.810Z,25.93
2019-05-21T05:45:51.478Z,24.30
2019-05-21T05:48:17.202Z,23.17
2019-05-21T05:50:44.026Z,20.97
2019-05-21T05:53:10.137Z,18.87
2019-05-21T05:55:35.254Z,19.37
2019-05-21T05:58:00.410Z,20.10
2019-05-21T06:00:25.834Z,18.47
2019-05-21T06:02:51.436Z,17.63
2019-05-21T06:05:17.862Z,17.70
2019-05-21T06:07:42.978Z,18.50
2019-05-21T06:10:08.320Z,19.27
2019-05-21T06:12:33.415Z,19.60
2019-05-21T06:14:58.827Z,19.00
2019-05-21T06:17:23.962Z,17.33
2019-05-21T06:19:49.060Z,16.87
2019-05-21T06:22:14.220Z,16.50
2019-05-21T06:24:39.318Z,16.10
2019-05-21T06:27:04.559Z,16.07
2019-05-21T06:29:29.696Z,15.03
2019-05-21T06:31:54.798Z,14.90
2019-05-21T06:34:19.911Z,14.60
2019-05-21T06:36:45.071Z,13.78
2019-05-21T06:39:10.277Z,13.03
2019-05-21T06:41:36.133Z,13.80
2019-05-21T06:44:02.351Z,12.00
2019-05-21T06:46:27.483Z,13.62
2019-05-21T06:48:52.677Z,13.03
2019-05-21T06:51:17.827Z,13.10
2019-05-21T06:53:42.976Z,12.35
2019-05-21T06:56:08.151Z,11.93
2019-05-21T06:58:33.305Z,11.45
2019-05-21T07:00:58.411Z,11.25
2019-05-21T07:03:23.554Z,11.38
2019-05-21T07:05:58.183Z,11.25
2019-05-21T07:08:15.429Z,10.95
2019-05-21T07:10:40.567Z,11.33
2019-05-21T07:13:05.676Z,11.30
2019-05-21T07:15:30.797Z,10.32
2019-05-21T07:17:55.902Z,10.32
2019-05-21T07:20:21.759Z,10.00
2019-05-21T07:22:46.973Z,9.48
2019-05-21T07:25:12.612Z,9.53
2019-05-21T07:27:37.707Z,9.03
2019-05-21T07:30:02.809Z,9.28
2019-05-21T07:32:28.027Z,8.20
2019-05-21T07:34:53.154Z,9.10
2019-05-21T07:37:19.209Z,9.40
2019-05-21T07:39:44.330Z,8.78
2019-05-21T07:42:09.451Z,8.58
2019-05-21T07:44:34.606Z,8.35
2019-05-21T07:46:59.754Z,7.75
2019-05-21T07:49:24.991Z,8.35
2019-05-21T07:51:50.134Z,8.50
2019-05-21T07:54:15.257Z,7.72
2019-05-21T07:56:40.387Z,8.55
2019-05-21T07:59:05.800Z,8.23
2019-05-21T08:01:31.618Z,7.67
2019-05-21T08:03:56.850Z,8.30
2019-05-21T08:06:22.258Z,6.92
2019-05-21T08:08:47.357Z,7.30
2019-05-21T08:11:12.609Z,7.12
2019-05-21T08:13:37.782Z,6.83
2019-05-21T08:16:02.887Z,7.28
2019-05-21T08:18:28.027Z,7.10
2019-05-21T08:20:53.127Z,6.92
2019-05-21T08:23:18.270Z,7.03
2019-05-21T08:25:43.378Z,6.80
2019-05-21T08:28:08.478Z,5.92
2019-05-21T08:30:33.603Z,6.15
2019-05-21T08:32:58.721Z,6.10
2019-05-21T08:35:23.950Z,5.83
2019-05-21T08:37:49.063Z,5.87
2019-05-21T08:40:14.806Z,6.35
2019-05-21T08:42:39.934Z,5.95
2019-05-21T08:45:06.358Z,6.05
2019-05-21T08:47:31.540Z,6.03
2019-05-21T08:49:56.701Z,5.85
2019-05-21T08:52:21.807Z,6.30
2019-05-21T08:54:56.039Z,5.92
2019-05-21T08:57:19.553Z,5.90
2019-05-21T08:59:44.699Z,5.12
2019-05-21T09:02:09.806Z,6.20
2019-05-21T09:04:45.848Z,5.30
2019-05-21T09:07:01.649Z,5.95
2019-05-21T09:09:27.327Z,5.40
2019-05-21T09:11:52.720Z,5.42
2019-05-21T09:14:18.020Z,5.30
2019-05-21T09:16:43.107Z,5.53
2019-05-21T09:19:08.562Z,5.50
2019-05-21T09:21:33.663Z,6.25
2019-05-21T09:23:59.937Z,6.25
2019-05-21T09:26:26.207Z,5.97
2019-05-21T09:28:51.334Z,6.00
2019-05-21T09:31:16.462Z,5.62
2019-05-21T09:33:41.584Z,5.25
2019-05-21T09:36:06.691Z,5.62
2019-05-21T09:38:31.791Z,6.17
2019-05-21T09:40:57.729Z,5.33
2019-05-21T09:43:22.818Z,4.72
2019-05-21T09:45:47.922Z,5.10
2019-05-21T09:48:13.050Z,5.35
2019-05-21T09:50:38.453Z,4.60
2019-05-21T09:53:03.662Z,4.95
2019-05-21T09:55:28.769Z,5.00
2019-05-21T09:58:00.533Z,4.62
2019-05-21T10:01:01.053Z,4.80
2019-05-21T10:03:28.530Z,4.45
2019-05-21T10:05:53.618Z,4.15
2019-05-21T10:08:18.852Z,4.40
2019-05-21T10:10:44.010Z,4.10
2019-05-21T10:13:09.114Z,4.40
2019-05-21T10:15:34.232Z,4.33
2019-05-21T10:17:59.573Z,3.98
2019-05-21T10:20:24.949Z,3.50
2019-05-21T10:22:50.047Z,3.70
2019-05-21T10:25:16.107Z,3.92
2019-05-21T10:27:41.233Z,4.37
2019-05-21T10:30:07.266Z,3.60
2019-05-21T10:32:32.416Z,3.72
2019-05-21T10:34:58.534Z,3.62
2019-05-21T10:37:23.666Z,3.98
2019-05-21T10:39:48.943Z,3.45
2019-05-21T10:42:14.294Z,3.50
2019-05-21T10:44:39.390Z,4.60
2019-05-21T10:47:05.193Z,3.90
2019-05-21T10:49:30.299Z,3.72
2019-05-21T10:51:58.062Z,3.27
2019-05-21T10:54:23.194Z,3.60
2019-05-21T10:56:48.718Z,3.42
2019-05-21T10:59:14.853Z,3.60
2019-05-21T11:01:58.632Z,3.40
2019-05-21T11:04:37.990Z,3.30
2019-05-21T11:07:03.086Z,3.37
2019-05-21T11:09:36.023Z,3.45
2019-05-21T11:12:00.650Z,3.10
2019-05-21T11:14:29.405Z,3.12
2019-05-21T11:16:54.687Z,2.98
2019-05-21T11:19:19.778Z,3.15
2019-05-21T11:21:44.893Z,3.50
2019-05-21T11:24:10.025Z,3.00
2019-05-21T11:26:35.130Z,3.80
2019-05-21T11:29:00.498Z,2.90
2019-05-21T11:31:25.658Z,2.98
2019-05-21T11:33:50.774Z,3.27
2019-05-21T11:36:15.887Z,3.40
2019-05-21T11:38:41.509Z,3.60
2019-05-21T11:41:06.837Z,2.98
2019-05-21T11:43:33.030Z,3.67
2019-05-21T11:46:02.743Z,3.42
2019-05-21T11:48:25.854Z,3.60
2019-05-21T11:50:50.990Z,3.35
2019-05-21T11:53:17.125Z,3.67
2019-05-21T11:55:42.248Z,3.42
2019-05-21T11:58:07.343Z,3.50
2019-05-21T12:00:34.565Z,3.05
2019-05-21T12:02:59.671Z,3.15
2019-05-21T12:05:25.750Z,3.10
2019-05-21T12:07:50.890Z,3.25
2019-05-21T12:10:16.959Z,3.12
2019-05-21T12:12:42.086Z,3.20
2019-05-21T12:15:07.812Z,2.98
2019-05-21T12:17:32.935Z,3.10
2019-05-21T12:19:58.047Z,3.30
2019-05-21T12:22:23.258Z,3.25
2019-05-21T12:24:48.631Z,3.30
2019-05-21T12:27:13.762Z,2.67
2019-05-21T12:29:38.859Z,2.98
2019-05-21T12:32:04.028Z,2.87
2019-05-21T12:34:29.153Z,3.20
2019-05-21T12:36:54.521Z,2.65
2019-05-21T12:39:19.613Z,2.83
2019-05-21T12:41:44.931Z,3.17
2019-05-21T12:44:12.136Z,3.40
2019-05-21T12:46:37.547Z,2.70
2019-05-21T12:49:02.627Z,2.90
2019-05-21T12:51:27.766Z,3.05
2019-05-21T12:53:53.696Z,2.70
2019-05-21T12:56:19.036Z,2.55
2019-05-21T12:58:44.155Z,3.00
2019-05-21T13:01:09.247Z,3.00
2019-05-21T13:03:34.634Z,3.00
2019-05-21T13:05:59.993Z,3.15
2019-05-21T13:08:25.358Z,3.22
2019-05-21T13:10:51.642Z,3.08
2019-05-21T13:13:16.983Z,3.00
2019-05-21T13:15:42.102Z,3.45
2019-05-21T13:18:07.607Z,3.52
2019-05-21T13:20:32.802Z,3.17
2019-05-21T13:22:57.898Z,3.80
2019-05-21T13:25:23.232Z,3.80
2019-05-21T13:27:48.347Z,3.55
2019-05-21T13:30:13.590Z,3.20
2019-05-21T13:32:38.952Z,4.00
2019-05-21T13:35:05.966Z,4.03
2019-05-21T13:37:31.601Z,3.98
2019-05-21T13:39:57.014Z,3.35
2019-05-21T13:42:23.246Z,3.95
2019-05-21T13:44:48.330Z,3.65
2019-05-21T13:47:13.789Z,3.87
2019-05-21T13:49:38.898Z,3.80
2019-05-21T13:52:03.994Z,3.70
2019-05-21T13:54:29.551Z,4.12
2019-05-21T13:56:54.938Z,3.70
2019-05-21T13:59:20.489Z,3.90
2019-05-21T14:01:45.651Z,3.20
2019-05-21T14:04:10.885Z,3.47
2019-05-21T14:06:36.926Z,3.62
2019-05-21T14:09:02.010Z,3.52
2019-05-21T14:11:28.237Z,3.40
2019-05-21T14:13:54.433Z,3.33
2019-05-21T14:16:19.523Z,2.77
2019-05-21T14:18:44.942Z,3.35
2019-05-21T14:21:10.205Z,2.85
2019-05-21T14:23:35.701Z,2.70
2019-05-21T14:26:01.098Z,3.60
2019-05-21T14:28:27.155Z,3.77
2019-05-21T14:30:52.551Z,3.75
2019-05-21T14:33:18.357Z,3.90
2019-05-21T14:35:44.234Z,4.40
2019-05-21T14:38:16.778Z,4.33
2019-05-21T14:40:42.874Z,4.33
2019-05-21T14:43:07.988Z,4.22
2019-05-21T14:45:34.473Z,3.90
2019-05-21T14:47:59.958Z,3.62
2019-05-21T14:50:25.610Z,3.52
2019-05-21T14:52:52.312Z,3.50
2019-05-21T14:55:17.706Z,3.80
2019-05-21T14:57:44.850Z,3.37
2019-05-21T15:00:37.084Z,4.70
2019-05-21T15:03:02.178Z,4.33
2019-05-21T15:05:27.431Z,5.20
2019-05-21T15:07:54.136Z,17.27
2019-05-21T15:10:19.243Z,4.17
2019-05-21T15:12:44.604Z,4.40
2019-05-21T15:15:09.891Z,5.87
2019-05-21T15:17:35.014Z,4.60
2019-05-21T15:20:02.117Z,3.52
2019-05-21T15:22:27.244Z,2.90
2019-05-21T15:24:52.343Z,3.20
2019-05-21T15:27:17.747Z,3.40
2019-05-21T15:29:43.095Z,3.62
2019-05-21T15:32:08.541Z,2.70
2019-05-21T15:34:33.630Z,4.08
2019-05-21T15:36:58.741Z,3.67
2019-05-21T15:39:24.440Z,3.08
2019-05-21T15:41:49.804Z,8.75
2019-05-21T15:44:15.204Z,3.10
2019-05-21T15:46:49.551Z,3.80
2019-05-21T15:49:08.422Z,3.20
2019-05-21T15:51:33.514Z,3.20
2019-05-21T15:53:58.624Z,4.30
2019-05-21T15:56:23.770Z,4.50
2019-05-21T15:58:49.939Z,9.23
2019-05-21T16:01:16.165Z,4.42
2019-05-21T16:03:41.256Z,4.10
2019-05-21T16:06:09.805Z,4.60
2019-05-21T16:08:35.114Z,4.00
2019-05-21T16:11:00.323Z,3.95
2019-05-21T16:13:25.477Z,7.12
2019-05-21T16:15:51.638Z,7.17
2019-05-21T16:18:17.985Z,7.40
2019-05-21T16:20:43.092Z,5.80
2019-05-21T16:23:08.855Z,10.32
2019-05-21T16:25:33.989Z,7.72
2019-05-21T16:27:59.098Z,7.00
2019-05-21T16:30:24.463Z,13.93
2019-05-21T16:32:49.926Z,5.15
2019-05-21T16:35:15.130Z,7.40
2019-05-21T16:37:40.828Z,3.05
2019-05-21T16:40:06.574Z,3.22
2019-05-21T16:42:31.766Z,4.50
2019-05-21T16:44:56.886Z,3.27
2019-05-21T16:47:22.966Z,3.77
2019-05-21T16:49:48.290Z,2.98
2019-05-21T16:52:13.559Z,2.75
2019-05-21T16:54:40.066Z,2.50
2019-05-21T16:57:05.279Z,2.80
2019-05-21T16:59:31.302Z,2.72
2019-05-21T17:01:57.798Z,2.95
2019-05-21T17:04:22.886Z,3.55
2019-05-21T17:06:48.017Z,3.47
2019-05-21T17:09:13.590Z,3.40
2019-05-21T17:11:38.705Z,3.55
2019-05-21T17:14:04.677Z,3.95
2019-05-21T17:16:31.556Z,3.62
2019-05-21T17:18:56.666Z,3.37
2019-05-21T17:21:21.758Z,3.37
2019-05-21T17:23:46.895Z,3.60
2019-05-21T17:26:11.989Z,3.55
2019-05-21T17:28:37.826Z,3.75
2019-05-21T17:31:03.029Z,3.58
2019-05-21T17:33:29.713Z,3.60
2019-05-21T17:35:54.841Z,3.30
2019-05-21T17:38:24.264Z,3.80
2019-05-21T17:40:47.890Z,3.85
2019-05-21T17:43:13.018Z,3.67
2019-05-21T17:45:40.390Z,3.98
2019-05-21T17:48:05.624Z,4.05
2019-05-21T17:50:32.166Z,3.90
2019-05-21T17:52:57.274Z,3.72
2019-05-21T17:55:22.418Z,3.40
2019-05-21T17:57:47.961Z,3.90
2019-05-21T18:00:16.365Z,4.00
2019-05-21T18:02:41.552Z,3.80
2019-05-21T18:05:08.436Z,3.62
2019-05-21T18:07:35.026Z,3.95
2019-05-21T18:10:00.560Z,3.67
2019-05-21T18:12:32.147Z,3.95
2019-05-21T18:14:54.556Z,4.25
2019-05-21T18:17:20.331Z,4.35
2019-05-21T18:19:46.067Z,4.28
2019-05-21T18:22:13.286Z,4.05
2019-05-21T18:24:39.170Z,4.87
2019-05-21T18:27:04.627Z,6.12
2019-05-21T18:29:30.198Z,5.83
2019-05-21T18:31:55.325Z,5.40
2019-05-21T18:34:21.387Z,5.25
2019-05-21T18:36:46.827Z,5.20
2019-05-21T18:39:11.945Z,5.00
2019-05-21T18:41:37.146Z,4.87
2019-05-21T18:44:02.435Z,5.20
2019-05-21T18:46:27.592Z,5.53
2019-05-21T18:48:52.673Z,5.70
2019-05-21T18:51:17.781Z,5.65
2019-05-21T18:53:42.975Z,5.62
2019-05-21T18:56:08.226Z,5.72
2019-05-21T18:58:33.722Z,5.65
2019-05-21T19:00:58.818Z,6.47
2019-05-21T19:03:25.755Z,6.42
2019-05-21T19:05:50.723Z,6.87
2019-05-21T19:08:16.953Z,6.60
2019-05-21T19:10:42.380Z,6.65
2019-05-21T19:13:07.640Z,6.55
2019-05-21T19:15:32.899Z,6.92
2019-05-21T19:17:58.233Z,7.37
2019-05-21T19:20:23.354Z,7.62
2019-05-21T19:22:49.822Z,7.00
2019-05-21T19:25:15.956Z,7.67
2019-05-21T19:27:41.045Z,8.50
2019-05-21T19:30:07.067Z,8.58
2019-05-21T19:32:32.239Z,9.18
2019-05-21T19:34:57.607Z,8.70
2019-05-21T19:37:22.831Z,8.58
2019-05-21T19:39:47.926Z,7.53
2019-05-21T19:42:13.141Z,7.40
2019-05-21T19:44:38.486Z,7.25
2019-05-21T19:47:03.577Z,6.72
2019-05-21T19:49:28.689Z,6.90
2019-05-21T19:51:54.034Z,7.10
2019-05-21T19:54:19.366Z,6.25
2019-05-21T19:56:44.584Z,6.70
2019-05-21T19:59:10.338Z,8.28
2019-05-21T20:01:35.842Z,6.83
2019-05-21T20:04:01.538Z,6.77
2019-05-21T20:06:27.035Z,4.57
2019-05-21T20:08:52.598Z,4.67
2019-05-21T20:11:18.129Z,4.75
2019-05-21T20:13:43.325Z,3.90
2019-05-21T20:16:10.339Z,3.70
2019-05-21T20:18:35.495Z,3.47
2019-05-21T20:21:01.037Z,3.50
2019-05-21T20:23:26.954Z,3.17
2019-05-21T20:25:56.424Z,3.67
2019-05-21T20:28:20.792Z,3.20
2019-05-21T20:30:46.655Z,3.37
2019-05-21T20:33:11.871Z,3.90
2019-05-21T20:35:38.846Z,4.07
2019-05-21T20:38:04.268Z,4.03
2019-05-21T20:40:30.470Z,4.10
2019-05-21T20:42:55.694Z,4.27
2019-05-21T20:45:21.617Z,3.70
2019-05-21T20:47:47.127Z,3.80
2019-05-21T20:50:13.139Z,3.13
2019-05-21T20:52:39.246Z,3.70
2019-05-21T20:55:05.270Z,4.03
2019-05-21T20:57:30.611Z,3.63
2019-05-21T20:59:56.078Z,4.07
2019-05-21T21:02:21.802Z,4.30
2019-05-21T21:04:47.287Z,4.70
2019-05-21T21:07:13.035Z,4.33
2019-05-21T21:09:38.902Z,4.00
2019-05-21T21:12:06.033Z,4.30
2019-05-21T21:14:31.928Z,4.53
2019-05-21T21:16:59.491Z,5.13
2019-05-21T21:19:24.657Z,4.40
2019-05-21T21:21:50.053Z,4.53
2019-05-21T21:24:15.319Z,5.77
2019-05-21T21:26:40.602Z,5.10
2019-05-21T21:29:06.991Z,5.37
2019-05-21T21:31:32.283Z,5.47
2019-05-21T21:33:57.530Z,5.70
2019-05-21T21:36:23.703Z,6.73
2019-05-21T21:38:49.229Z,7.43
2019-05-21T21:41:16.217Z,7.97
2019-05-21T21:43:41.825Z,7.87
2019-05-21T21:46:07.188Z,7.73
2019-05-21T21:48:32.512Z,10.60
2019-05-21T21:50:58.783Z,11.57
2019-05-21T21:53:24.299Z,13.83
2019-05-21T21:55:49.390Z,16.10
2019-05-21T21:58:15.465Z,16.00
2019-05-21T22:01:24.793Z,16.07
2019-05-21T22:03:50.495Z,16.63
2019-05-21T22:06:18.111Z,17.40
2019-05-21T22:08:43.488Z,17.37
2019-05-21T22:11:08.832Z,18.77
2019-05-21T22:13:34.293Z,16.80
2019-05-21T22:16:00.165Z,17.30
2019-05-21T22:18:26.136Z,18.33
2019-05-21T22:20:51.548Z,17.03
2019-05-21T22:23:16.766Z,18.33
2019-05-21T22:25:43.023Z,18.57
2019-05-21T22:28:08.154Z,18.83
2019-05-21T22:30:33.815Z,17.50
2019-05-21T22:32:58.975Z,17.87
2019-05-21T22:35:24.250Z,18.30
2019-05-21T22:37:49.994Z,18.10
2019-05-21T22:40:16.094Z,18.60
2019-05-21T22:42:41.242Z,19.30
2019-05-21T22:45:09.124Z,19.73
2019-05-21T22:47:35.011Z,20.70
2019-05-21T22:50:00.421Z,22.30
2019-05-21T22:52:25.506Z,21.20
2019-05-21T22:54:50.630Z,21.57
2019-05-21T22:57:15.735Z,19.97
2019-05-21T22:59:40.966Z,23.60
2019-05-21T23:02:08.993Z,22.53
2019-05-21T23:04:34.193Z,22.33
2019-05-21T23:07:02.386Z,22.70
2019-05-21T23:09:27.717Z,22.57
2019-05-21T23:11:53.091Z,23.70
2019-05-21T23:14:18.196Z,24.20
2019-05-21T23:16:44.066Z,24.70
2019-05-21T23:19:11.710Z,24.50
2019-05-21T23:21:41.414Z,24.23
2019-05-21T23:24:13.222Z,24.67
2019-05-21T23:26:38.326Z,24.60
2019-05-21T23:29:04.429Z,26.83
2019-05-21T23:31:31.243Z,25.80
2019-05-21T23:33:57.807Z,28.00
2019-05-21T23:36:24.072Z,31.30
2019-05-21T23:38:50.632Z,31.43
2019-05-21T23:41:16.238Z,31.80
2019-05-21T23:43:41.418Z,32.83
2019-05-21T23:46:07.530Z,33.20
2019-05-21T23:48:32.838Z,34.73
2019-05-21T23:50:58.296Z,33.87
2019-05-21T23:53:23.407Z,35.07
2019-05-21T23:55:48.537Z,35.73
2019-05-21T23:58:14.263Z,35.23
